Time;durP1;ratioP1;P1;durP2;ratioP2;P2;SDS_P1;SDS_P2;PMS_P1;PMS_P2;Temp;Humidity;BMP_temperature;BMP_pressure;BME280_temperature;BME280_humidity;BME280_pressure;Samples;Min_cycle;Max_cycle;Signal;HPM_P1;HPM_P2
2022/03/03 01:29:12;;;;;;;75.07;31.00;;;;;;;-5.80;100.00;100048.03;4867634;29;20049;-84
2022/03/03 01:33:40;;;;;;;72.72;30.17;;;;;;;-5.81;100.00;100055.63;4798073;29;20069;-84
2022/03/03 01:41:43;;;;;;;70.18;29.23;;;;;;;-5.90;100.00;100046.75;4835925;29;20065;-84
2022/03/03 01:49:53;;;;;;;67.70;27.73;;;;;;;-5.83;100.00;100036.81;4824147;29;20042;-84
2022/03/03 01:53:42;;;;;;;70.43;30.58;;;;;;;-5.70;100.00;100068.03;4827291;29;20062;-84
2022/03/03 01:57:30;;;;;;;73.22;32.47;;;;;;;-5.73;100.00;100060.25;4807085;29;20093;-84
2022/03/03 02:01:13;;;;;;;68.00;26.83;;;;;;;-5.77;100.00;100058.38;4829416;29;20099;-84
2022/03/03 02:05:37;;;;;;;64.88;27.20;;;;;;;-5.98;100.00;100029.38;4810296;29;20031;-84
2022/03/03 02:09:10;;;;;;;65.85;28.83;;;;;;;-5.82;100.00;100044.53;4790429;29;20054;-84
2022/03/03 02:12:53;;;;;;;88.32;33.92;;;;;;;-5.55;100.00;100102.72;4775168;30;20062;-84
2022/03/03 02:16:30;;;;;;;77.82;33.88;;;;;;;-5.87;100.00;100034.13;4760649;30;20060;-84
2022/03/03 02:19:37;;;;;;;75.55;32.97;;;;;;;-5.93;100.00;100020.28;4757395;30;20131;-84
2022/03/03 02:23:43;;;;;;;67.22;29.40;;;;;;;-5.52;100.00;100078.19;4705016;30;20046;-84
2022/03/03 02:27:26;;;;;;;66.80;29.13;;;;;;;-5.79;100.00;100028.50;4653983;30;20044;-84
2022/03/03 02:30:21;;;;;;;64.00;29.17;;;;;;;-5.63;100.00;100064.94;4642146;30;20064;-84
2022/03/03 02:34:09;;;;;;;74.35;31.95;;;;;;;-5.59;100.00;100068.50;4637251;30;20050;-84
2022/03/03 02:37:24;;;;;;;76.28;35.00;;;;;;;-5.95;100.00;99987.03;4625901;30;20047;-84
2022/03/03 02:40:32;;;;;;;76.05;32.67;;;;;;;-5.69;100.00;100043.41;4657388;30;20082;-84
2022/03/03 02:43:48;;;;;;;78.93;32.78;;;;;;;-5.90;100.00;100020.38;4655494;30;20040;-84
2022/03/03 02:47:43;;;;;;;85.38;36.28;;;;;;;-6.04;100.00;99991.75;4653382;30;20070;-84
2022/03/03 02:50:50;;;;;;;74.93;32.80;;;;;;;-5.73;100.00;100021.09;4671370;30;20039;-84
2022/03/03 02:54:24;;;;;;;71.03;31.55;;;;;;;-5.58;100.00;100033.66;4663224;30;20090;-84
2022/03/03 02:57:54;;;;;;;76.30;31.33;;;;;;;-5.73;100.00;100008.34;4668512;30;20034;-84
2022/03/03 03:01:32;;;;;;;82.55;33.38;;;;;;;-5.68;100.00;100012.84;4725498;30;20053;-84
2022/03/03 03:05:32;;;;;;;85.13;36.10;;;;;;;-5.48;100.00;100035.81;4656477;30;20142;-84
2022/03/03 03:09:33;;;;;;;80.90;34.78;;;;;;;-5.74;100.00;99992.16;4690530;30;20101;-84
2022/03/03 03:12:51;;;;;;;74.45;33.03;;;;;;;-5.67;100.00;99980.53;4702741;30;20093;-84
2022/03/03 03:16:38;;;;;;;69.32;30.42;;;;;;;-5.35;100.00;100021.88;4673667;30;20062;-84
2022/03/03 03:19:56;;;;;;;86.50;34.13;;;;;;;-5.35;100.00;100016.78;4681162;30;20098;-84
2022/03/03 03:23:40;;;;;;;93.55;35.75;;;;;;;-5.74;100.00;99960.69;4691891;30;20043;-84
2022/03/03 03:26:52;;;;;;;76.20;33.97;;;;;;;-5.82;100.00;99942.47;4706279;30;20125;-84
2022/03/03 03:30:10;;;;;;;93.85;36.58;;;;;;;-5.79;100.00;99947.72;4707276;30;20072;-84
2022/03/03 03:33:30;;;;;;;91.05;39.78;;;;;;;-5.46;100.00;100004.44;4687558;30;20118;-84
2022/03/03 03:36:44;;;;;;;81.80;35.05;;;;;;;-5.61;100.00;99973.16;4759923;30;20095;-84
2022/03/03 03:40:21;;;;;;;76.65;27.60;;;;;;;-5.32;100.00;100012.66;4759453;30;20051;-84
2022/03/03 03:43:33;;;;;;;105.18;40.25;;;;;;;-5.49;100.00;99977.88;4747955;30;20040;-84
2022/03/03 03:46:57;;;;;;;88.72;33.45;;;;;;;-5.45;100.00;99974.66;4780333;30;20406;-84
2022/03/03 03:50:56;;;;;;;68.63;28.30;;;;;;;-5.57;100.00;99948.63;4782331;30;20160;-84
2022/03/03 04:03:57;;;;;;;48.72;23.25;;;;;;;-5.11;100.00;99993.91;4793204;30;20032;-84
2022/03/03 04:08:22;;;;;;;52.45;24.23;;;;;;;-5.15;100.00;100004.81;4710408;30;20042;-84
2022/03/03 04:12:20;;;;;;;48.35;22.27;;;;;;;-5.31;100.00;99959.91;4732168;30;20040;-84
2022/03/03 04:15:37;;;;;;;46.88;21.67;;;;;;;-5.31;100.00;99948.00;4746596;30;20118;-84
2022/03/03 04:19:57;;;;;;;49.60;22.65;;;;;;;-5.56;100.00;99919.72;4724298;30;20045;-84
2022/03/03 04:24:13;;;;;;;48.20;22.75;;;;;;;-5.43;100.00;99945.84;4666729;30;20043;-84
2022/03/03 04:37:18;;;;;;;45.67;23.27;;;;;;;-5.23;100.00;99972.19;4652585;30;20080;-84
2022/03/03 06:12:48;;;;;;;78.35;32.22;;;;;;;-3.59;100.00;99867.31;5409148;23;20083;-78
2022/03/03 06:15:35;;;;;;;71.88;36.42;;;;;;;-3.36;100.00;99907.34;4914827;29;20402;-82
2022/03/03 06:18:30;;;;;;;79.85;38.85;;;;;;;-3.31;100.00;99897.25;4930107;29;20052;-83
2022/03/03 06:21:22;;;;;;;82.38;39.72;;;;;;;-3.02;100.00;99918.69;4919578;29;20071;-83
2022/03/03 06:24:10;;;;;;;80.82;40.33;;;;;;;-2.95;100.00;99900.09;4917064;29;20048;-83
2022/03/03 06:27:06;;;;;;;92.55;44.05;;;;;;;-3.09;100.00;99870.59;4920179;29;20044;-83
2022/03/03 06:29:57;;;;;;;79.95;39.75;;;;;;;-3.02;100.00;99874.22;4934972;29;20055;-83
2022/03/03 06:32:54;;;;;;;90.05;43.80;;;;;;;-2.57;100.00;99913.16;4920196;29;20096;-83
2022/03/03 06:35:39;;;;;;;82.55;38.80;;;;;;;-2.45;100.00;99882.75;4939082;29;20050;-83
2022/03/03 06:38:27;;;;;;;89.53;42.08;;;;;;;-2.15;100.00;99882.72;4939428;29;20110;-83
2022/03/03 06:41:14;;;;;;;121.53;62.00;;;;;;;-1.93;100.00;99866.19;4940204;29;20443;-81
2022/03/03 06:44:00;;;;;;;121.75;68.40;;;;;;;-1.50;100.00;99889.53;4941711;29;20043;-81
2022/03/03 06:46:45;;;;;;;90.60;46.50;;;;;;;-0.66;100.00;99930.06;4927805;29;20055;-81
2022/03/03 06:49:30;;;;;;;93.88;44.42;;;;;;;-0.19;100.00;99886.44;4921654;29;20044;-81
2022/03/03 06:52:31;;;;;;;98.78;47.97;;;;;;;0.46;100.00;99912.53;4934867;29;20040;-88
2022/03/03 06:55:23;;;;;;;93.05;47.17;;;;;;;0.95;100.00;99935.69;4936515;29;20056;-90
2022/03/03 06:58:09;;;;;;;83.43;41.40;;;;;;;0.74;97.79;99902.66;4926913;29;20055;-88
2022/03/03 07:00:54;;;;;;;91.10;43.78;;;;;;;1.08;97.81;99945.34;4923365;29;20052;-91
2022/03/03 07:03:42;;;;;;;91.65;44.85;;;;;;;1.71;97.31;99937.59;4909170;29;20044;-92
2022/03/03 07:06:27;;;;;;;81.75;39.42;;;;;;;2.26;95.75;99926.19;4922613;29;20452;-92
2022/03/03 07:09:12;;;;;;;76.70;39.15;;;;;;;2.44;90.91;99924.63;4922555;29;20054;-92
2022/03/03 07:11:59;;;;;;;70.40;34.13;;;;;;;2.90;86.45;99932.81;4922324;29;20060;-92
2022/03/03 07:14:44;;;;;;;60.90;31.52;;;;;;;3.07;86.78;99905.34;4922406;29;20056;-92
2022/03/03 07:17:47;;;;;;;62.75;33.22;;;;;;;3.30;83.43;99915.84;4895808;29;20047;-92
2022/03/03 07:20:57;;;;;;;56.13;31.45;;;;;;;3.66;83.56;99922.94;4908603;29;20179;-93
2022/03/03 07:24:09;;;;;;;57.72;30.52;;;;;;;4.05;79.21;99916.19;4889584;29;20060;-92
2022/03/03 07:26:58;;;;;;;54.20;28.65;;;;;;;4.28;74.19;99917.97;4908720;29;20051;-93
2022/03/03 07:29:47;;;;;;;52.10;24.98;;;;;;;4.75;73.20;99918.03;4908335;29;20432;-92
2022/03/03 07:32:37;;;;;;;51.30;25.95;;;;;;;4.96;71.54;99917.16;4908641;29;20111;-91
2022/03/03 07:35:25;;;;;;;45.75;27.02;;;;;;;5.30;70.73;99914.53;4910520;29;20055;-93
2022/03/03 07:38:14;;;;;;;48.92;27.30;;;;;;;5.13;68.90;99915.44;4908154;29;20040;-91
2022/03/03 07:40:59;;;;;;;54.42;28.23;;;;;;;5.63;67.19;99893.66;4908525;29;20056;-90
2022/03/03 07:43:43;;;;;;;59.00;31.45;;;;;;;5.59;63.19;99909.28;4922505;29;20060;-91
2022/03/03 07:46:28;;;;;;;62.67;35.05;;;;;;;5.81;67.75;99908.28;4893816;29;20062;-91
2022/03/03 07:49:13;;;;;;;62.45;33.55;;;;;;;5.95;63.75;99913.50;4922029;29;20093;-91
2022/03/03 07:51:58;;;;;;;61.60;33.70;;;;;;;6.07;65.46;99912.53;4922407;29;20045;-89
2022/03/03 07:54:42;;;;;;;73.55;39.28;;;;;;;6.36;60.25;99911.53;4895163;29;20054;-90
2022/03/03 07:57:35;;;;;;;76.97;38.80;;;;;;;6.47;62.61;99907.13;4894505;29;20044;-90
2022/03/03 08:00:19;;;;;;;65.30;33.28;;;;;;;6.97;62.36;99901.50;4894416;29;20048;-90
2022/03/03 08:03:08;;;;;;;65.75;37.60;;;;;;;7.22;60.73;99901.28;4908104;29;20096;-91
2022/03/03 08:05:58;;;;;;;63.38;36.15;;;;;;;7.41;60.00;99902.81;4894465;29;20052;-90
2022/03/03 08:08:44;;;;;;;59.75;33.13;;;;;;;7.38;57.25;99894.19;4921377;29;20043;-90
2022/03/03 08:11:29;;;;;;;51.10;28.75;;;;;;;7.22;55.48;99896.94;4921757;29;20052;-90
2022/03/03 08:14:16;;;;;;;65.47;34.25;;;;;;;7.09;53.77;99889.25;4921375;29;20044;-89
2022/03/03 08:17:00;;;;;;;154.75;70.55;;;;;;;7.19;53.68;99893.50;4921816;29;20067;-90
2022/03/03 08:19:45;;;;;;;119.78;57.67;;;;;;;7.30;51.92;99889.03;4921286;29;20045;-88
2022/03/03 08:22:30;;;;;;;54.28;30.00;;;;;;;7.02;51.36;99889.31;4894539;29;20040;-90
2022/03/03 08:25:15;;;;;;;67.45;44.92;;;;;;;6.89;52.09;99892.91;4907277;29;20040;-90
2022/03/03 08:28:01;;;;;;;80.72;55.53;;;;;;;7.32;52.33;99886.44;4921064;29;20107;-90
2022/03/03 08:30:48;;;;;;;38.22;22.85;;;;;;;7.36;49.56;99877.69;4907616;29;20111;-90
2022/03/03 08:33:41;;;;;;;33.35;20.25;;;;;;;6.84;47.88;99886.88;4907005;29;20123;-89
2022/03/03 08:36:44;;;;;;;29.90;17.85;;;;;;;7.48;48.09;99873.22;4906870;29;20044;-89
2022/03/03 08:39:30;;;;;;;31.33;16.73;;;;;;;7.34;48.23;99876.84;4907369;29;20047;-88
2022/03/03 08:42:23;;;;;;;28.38;17.95;;;;;;;7.00;47.80;99878.03;4921367;29;20044;-89
2022/03/03 08:45:10;;;;;;;30.35;18.35;;;;;;;6.63;46.98;99871.41;4907277;29;20051;-90
2022/03/03 08:48:06;;;;;;;28.65;15.68;;;;;;;7.01;49.66;99881.50;4893869;29;20407;-89
2022/03/03 08:50:53;;;;;;;26.45;16.15;;;;;;;7.32;49.48;99873.41;4893584;29;20446;-88
2022/03/03 08:53:37;;;;;;;29.23;16.35;;;;;;;7.50;48.06;99878.38;4907005;29;20064;-88
2022/03/03 08:56:25;;;;;;;29.80;17.48;;;;;;;7.14;46.43;99887.47;4906219;29;20119;-88
2022/03/03 08:59:09;;;;;;;30.13;18.33;;;;;;;7.03;48.42;99879.75;4893860;29;20434;-89
2022/03/03 09:01:56;;;;;;;23.17;15.70;;;;;;;7.25;47.33;99873.47;4906936;29;20044;-89
2022/03/03 09:04:41;;;;;;;28.48;15.57;;;;;;;6.95;47.08;99863.31;4906670;29;20040;-89
2022/03/03 09:07:25;;;;;;;28.65;17.90;;;;;;;7.23;46.37;99866.53;4920754;29;20328;-89
2022/03/03 09:10:10;;;;;;;27.13;16.48;;;;;;;7.31;46.63;99877.72;4906928;29;20044;-89
2022/03/03 09:12:55;;;;;;;31.27;16.85;;;;;;;7.55;48.16;99863.56;4906967;29;20143;-89
2022/03/03 09:15:39;;;;;;;25.02;16.13;;;;;;;7.62;46.97;99864.34;4920768;29;20048;-90
2022/03/03 09:18:24;;;;;;;29.38;17.02;;;;;;;7.85;46.02;99864.94;4894106;29;20347;-82
2022/03/03 09:21:09;;;;;;;29.80;16.40;;;;;;;7.95;44.52;99876.09;4906908;29;20072;-82
2022/03/03 09:23:54;;;;;;;27.88;16.73;;;;;;;7.00;44.87;99861.56;4920497;29;20110;-82
2022/03/03 09:26:38;;;;;;;28.40;16.95;;;;;;;7.15;46.30;99864.03;4906619;29;20056;-82
2022/03/03 09:29:23;;;;;;;27.83;15.07;;;;;;;7.47;46.46;99868.00;4906184;29;20067;-81
2022/03/03 09:32:09;;;;;;;28.35;17.08;;;;;;;7.30;46.16;99864.72;4920022;29;20055;-82
2022/03/03 09:34:54;;;;;;;27.88;16.52;;;;;;;7.65;45.91;99854.75;4906198;29;20444;-82
2022/03/03 09:37:40;;;;;;;30.70;16.60;;;;;;;7.62;44.42;99861.75;4906076;29;20067;-82
2022/03/03 09:40:24;;;;;;;29.55;17.50;;;;;;;7.91;45.41;99866.59;4920399;29;20048;-81
2022/03/03 09:43:09;;;;;;;31.77;18.52;;;;;;;7.62;44.42;99862.59;4920113;29;20052;-82
2022/03/03 09:45:53;;;;;;;27.60;15.85;;;;;;;7.25;44.88;99862.19;4906000;29;20496;-82
2022/03/03 09:48:38;;;;;;;31.33;17.08;;;;;;;6.76;44.08;99873.06;4920211;29;20052;-82
2022/03/03 09:51:23;;;;;;;29.35;18.25;;;;;;;6.72;44.52;99868.75;4905693;29;20136;-82
2022/03/03 09:54:09;;;;;;;30.92;18.17;;;;;;;7.10;45.25;99867.53;4905925;29;20100;-82
2022/03/03 09:56:53;;;;;;;30.88;16.85;;;;;;;7.38;45.43;99862.91;4906155;29;20044;-82
2022/03/03 09:59:37;;;;;;;31.90;18.13;;;;;;;7.37;46.69;99861.16;4906202;29;20055;-81
2022/03/03 10:02:21;;;;;;;35.17;19.60;;;;;;;7.72;44.84;99845.97;4919758;29;20049;-81
2022/03/03 10:05:06;;;;;;;34.90;20.13;;;;;;;7.70;44.97;99855.56;4892542;29;20101;-81
2022/03/03 10:08:08;;;;;;;27.83;15.65;;;;;;;8.20;42.64;99858.38;4906008;29;20044;-81
2022/03/03 10:10:55;;;;;;;30.95;18.85;;;;;;;7.67;44.69;99858.22;4896872;29;20040;-79
2022/03/03 10:13:47;;;;;;;37.95;21.00;;;;;;;7.59;44.10;99856.56;4910016;29;20119;-82
2022/03/03 10:16:31;;;;;;;30.70;18.30;;;;;;;7.79;44.39;99853.72;4923734;29;20503;-82
2022/03/03 10:19:16;;;;;;;33.45;18.92;;;;;;;8.05;44.33;99869.00;4923469;29;20062;-82
2022/03/03 10:22:00;;;;;;;34.40;18.50;;;;;;;8.45;44.65;99860.63;4923753;29;20048;-81
2022/03/03 10:24:45;;;;;;;30.00;17.08;;;;;;;8.61;43.11;99859.50;4896667;29;20052;-81
2022/03/03 10:27:31;;;;;;;27.25;16.75;;;;;;;8.20;43.47;99856.63;4896667;29;20051;-82
2022/03/03 10:30:15;;;;;;;30.15;18.52;;;;;;;8.60;42.86;99856.03;4909553;29;20422;-81
2022/03/03 10:33:13;;;;;;;32.97;19.00;;;;;;;8.94;42.54;99865.03;4896163;29;20040;-81
2022/03/03 10:36:10;;;;;;;31.38;17.95;;;;;;;8.89;42.69;99854.69;4909005;29;20044;-81
2022/03/03 10:38:56;;;;;;;31.35;18.13;;;;;;;8.95;43.00;99851.97;4923317;29;20052;-82
2022/03/03 10:41:43;;;;;;;38.17;17.90;;;;;;;8.89;42.43;99854.69;4896452;29;20108;-82
2022/03/03 10:44:31;;;;;;;30.63;17.83;;;;;;;8.95;40.82;99841.50;4908909;29;20051;-80
2022/03/03 10:47:18;;;;;;;38.30;20.70;;;;;;;8.17;40.78;99846.22;4923013;29;20131;-80
2022/03/03 10:50:03;;;;;;;31.63;18.95;;;;;;;7.88;41.99;99849.25;4895875;29;20040;-81
2022/03/03 10:52:48;;;;;;;28.95;17.30;;;;;;;8.57;41.54;99842.16;4895513;29;20111;-81
2022/03/03 10:55:32;;;;;;;31.42;17.38;;;;;;;8.15;42.54;99849.72;4909294;29;20428;-82
2022/03/03 10:58:16;;;;;;;35.08;19.25;;;;;;;8.20;42.15;99847.94;4923342;29;20040;-81
2022/03/03 11:01:01;;;;;;;35.60;19.45;;;;;;;8.04;43.34;99842.06;4922651;29;20048;-81
2022/03/03 11:03:50;;;;;;;26.70;16.98;;;;;;;7.82;44.08;99831.06;4908949;29;20048;-82
2022/03/03 11:06:34;;;;;;;90.60;37.63;;;;;;;7.75;45.07;99837.25;4922580;29;20044;-82
2022/03/03 11:09:19;;;;;;;33.30;18.63;;;;;;;7.95;45.07;99839.59;4908395;29;20336;-81
2022/03/03 11:12:06;;;;;;;31.30;19.08;;;;;;;8.24;45.46;99831.34;4922384;29;20067;-81
2022/03/03 11:14:53;;;;;;;32.58;19.90;;;;;;;7.90;46.51;99834.44;4892757;29;20067;-81
2022/03/03 11:17:38;;;;;;;35.10;21.27;;;;;;;7.75;46.17;99824.22;4908389;29;20063;-81
2022/03/03 11:20:23;;;;;;;32.85;20.02;;;;;;;7.79;46.70;99820.66;4922557;29;20097;-81
2022/03/03 11:23:08;;;;;;;31.98;19.35;;;;;;;7.81;47.31;99821.53;4908699;29;20420;-81
2022/03/03 11:25:52;;;;;;;38.38;21.92;;;;;;;7.84;47.73;99815.41;4908241;29;20055;-81
2022/03/03 11:28:37;;;;;;;30.75;20.13;;;;;;;7.80;48.42;99806.78;4908742;29;20044;-81
2022/03/03 11:31:30;;;;;;;37.25;21.27;;;;;;;7.74;48.39;99822.50;4908374;29;20048;-82
2022/03/03 11:34:26;;;;;;;36.17;20.50;;;;;;;7.72;48.25;99821.66;4894867;29;20115;-81
2022/03/03 11:37:15;;;;;;;35.55;21.40;;;;;;;8.07;46.97;99821.16;4922239;29;20696;-81
2022/03/03 11:40:02;;;;;;;36.42;21.38;;;;;;;8.10;47.55;99822.88;4908353;29;20107;-82
2022/03/03 11:42:53;;;;;;;30.00;18.30;;;;;;;7.95;45.97;99824.78;4908518;29;20040;-82
2022/03/03 11:45:42;;;;;;;39.78;23.27;;;;;;;8.14;47.79;99820.19;4907892;29;20396;-81
2022/03/03 11:48:38;;;;;;;34.47;21.13;;;;;;;8.18;47.05;99816.63;4894647;29;20052;-82
2022/03/03 11:51:35;;;;;;;32.63;21.08;;;;;;;8.02;47.76;99812.53;4908322;29;20120;-82
2022/03/03 11:54:31;;;;;;;32.72;19.52;;;;;;;7.97;44.31;99806.53;4921997;29;20048;-83
2022/03/03 11:57:15;;;;;;;33.33;18.55;;;;;;;7.83;43.80;99818.88;4894996;29;20044;-82
2022/03/03 12:00:05;;;;;;;28.70;18.52;;;;;;;7.80;44.71;99821.53;4907581;29;20455;-82
2022/03/03 12:03:03;;;;;;;29.98;18.38;;;;;;;8.00;43.81;99803.88;4909025;29;20428;-81
2022/03/03 12:05:50;;;;;;;29.83;18.50;;;;;;;8.13;44.08;99815.00;4894937;29;20110;-81
2022/03/03 12:08:37;;;;;;;30.30;18.38;;;;;;;7.92;44.66;99805.72;4907808;29;20470;-80
2022/03/03 12:11:36;;;;;;;28.05;17.05;;;;;;;7.97;42.63;99822.19;4921927;29;20044;-90
2022/03/03 12:14:29;;;;;;;27.33;16.55;;;;;;;8.11;43.75;99814.16;4894806;29;20048;-88
2022/03/03 12:17:39;;;;;;;30.35;18.38;;;;;;;8.02;44.15;99809.06;4907595;29;20040;-88
2022/03/03 12:20:23;;;;;;;35.85;20.42;;;;;;;7.75;45.40;99805.09;4907353;29;20052;-88
2022/03/03 12:23:11;;;;;;;79.28;44.47;;;;;;;7.92;44.31;99795.28;4907624;29;20044;-90
2022/03/03 12:26:02;;;;;;;100.85;49.80;;;;;;;8.24;45.68;99788.72;4894210;29;20044;-88
2022/03/03 12:28:49;;;;;;;44.10;26.67;;;;;;;8.04;46.81;99783.81;4907327;29;20044;-90
2022/03/03 12:31:40;;;;;;;36.95;22.35;;;;;;;8.16;46.80;99786.25;4920477;29;20047;-88
2022/03/03 12:34:26;;;;;;;36.78;23.65;;;;;;;7.83;47.12;99771.94;4907097;29;20064;-89
2022/03/03 12:37:11;;;;;;;48.75;28.20;;;;;;;7.63;47.60;99769.63;4894280;29;20059;-87
2022/03/03 12:40:00;;;;;;;50.55;29.52;;;;;;;7.81;47.01;99779.81;4907125;29;20048;-90
2022/03/03 12:42:47;;;;;;;37.80;22.95;;;;;;;7.73;47.98;99777.31;4906882;29;20336;-89
2022/03/03 12:45:31;;;;;;;44.08;26.98;;;;;;;7.65;46.72;99770.47;4906748;29;20078;-90
2022/03/03 12:48:31;;;;;;;35.45;22.40;;;;;;;7.77;46.74;99775.53;4907371;29;20121;-88
2022/03/03 12:51:15;;;;;;;37.50;21.35;;;;;;;7.98;47.29;99774.34;4893354;29;20454;-90
2022/03/03 12:54:04;;;;;;;34.50;19.67;;;;;;;8.01;47.08;99776.03;4893770;29;20048;-89
2022/03/03 12:57:03;;;;;;;36.33;20.35;;;;;;;7.80;47.61;99772.88;4906738;29;20138;-88
2022/03/03 12:59:48;;;;;;;40.58;25.65;;;;;;;7.61;46.79;99769.66;4920670;29;20044;-88
2022/03/03 13:02:56;;;;;;;55.28;26.13;;;;;;;7.54;46.38;99764.53;4906275;29;20477;-88
2022/03/03 13:05:47;;;;;;;31.95;18.15;;;;;;;7.62;47.47;99766.16;4906975;29;20048;-87
2022/03/03 13:08:33;;;;;;;31.67;18.98;;;;;;;7.45;46.44;99771.59;4906277;29;20044;-87
2022/03/03 13:11:18;;;;;;;25.70;14.55;;;;;;;7.37;47.66;99765.59;4905062;29;20045;-89
2022/03/03 13:14:06;;;;;;;25.42;15.05;;;;;;;7.44;46.21;99777.72;4891853;29;20044;-87
2022/03/03 13:16:50;;;;;;;25.55;16.73;;;;;;;7.35;47.17;99759.56;4904395;29;20047;-90
2022/03/03 13:19:48;;;;;;;25.65;15.15;;;;;;;7.30;46.82;99770.94;4904391;29;20048;-89
2022/03/03 13:22:36;;;;;;;25.42;15.07;;;;;;;7.35;47.70;99770.00;4918250;29;20048;-90
2022/03/03 13:25:21;;;;;;;25.75;15.70;;;;;;;7.22;47.81;99760.63;4891193;29;20040;-90
2022/03/03 13:28:07;;;;;;;32.33;20.40;;;;;;;7.17;47.91;99767.59;4904258;29;20427;-88
2022/03/03 13:30:51;;;;;;;32.63;20.65;;;;;;;7.10;49.44;99771.16;4905650;29;20052;-90
2022/03/03 13:33:47;;;;;;;31.08;20.15;;;;;;;6.94;50.65;99758.31;4919917;29;20048;-89
2022/03/03 13:36:38;;;;;;;39.35;20.23;;;;;;;7.21;51.01;99766.69;4918308;29;20064;-89
2022/03/03 13:39:34;;;;;;;33.40;19.83;;;;;;;6.94;51.70;99762.66;4919610;29;20083;-89
2022/03/03 13:42:26;;;;;;;35.10;21.20;;;;;;;6.91;51.75;99765.28;4892605;29;20048;-90
2022/03/03 13:45:11;;;;;;;41.33;24.52;;;;;;;6.73;54.73;99754.22;4906362;29;20441;-90
2022/03/03 13:48:14;;;;;;;46.30;27.70;;;;;;;6.76;57.34;99766.34;4892594;29;20359;-91
2022/03/03 13:51:04;;;;;;;46.37;27.00;;;;;;;6.66;57.30;99767.28;4892694;29;20051;-89
2022/03/03 13:53:59;;;;;;;42.72;27.60;;;;;;;6.43;59.83;99773.56;4921208;29;20051;-90
2022/03/03 13:56:44;;;;;;;47.15;28.35;;;;;;;6.42;60.99;99756.22;4892654;29;20044;-92
2022/03/03 13:59:28;;;;;;;63.03;33.80;;;;;;;5.98;65.14;99767.88;4905929;29;20048;-93
2022/03/03 14:02:15;;;;;;;74.10;39.42;;;;;;;5.79;67.21;99776.63;4905687;29;20055;-93
2022/03/03 14:05:02;;;;;;;64.95;36.10;;;;;;;5.94;69.50;99784.34;4906083;29;20131;-92
2022/03/03 14:07:51;;;;;;;66.13;38.33;;;;;;;5.79;72.48;99792.22;4892543;29;20055;-91
2022/03/03 14:10:47;;;;;;;64.00;37.50;;;;;;;5.49;74.21;99788.03;4892431;29;20044;-92
2022/03/03 14:13:54;;;;;;;71.65;40.05;;;;;;;5.16;77.18;99797.69;4892348;29;20146;-93
2022/03/03 14:16:38;;;;;;;72.30;40.15;;;;;;;4.99;77.91;99784.75;4892359;29;20384;-90
2022/03/03 14:19:23;;;;;;;71.80;40.17;;;;;;;4.84;78.50;99793.47;4905572;29;20056;-92
2022/03/03 14:22:08;;;;;;;71.47;40.13;;;;;;;4.55;79.37;99798.69;4892597;29;20055;-91
2022/03/03 14:24:54;;;;;;;71.30;40.67;;;;;;;4.32;81.88;99803.00;4892684;29;20068;-93
2022/03/03 14:27:38;;;;;;;68.72;36.92;;;;;;;4.04;83.90;99803.00;4905727;29;20119;-92
2022/03/03 14:30:22;;;;;;;66.13;37.30;;;;;;;4.16;83.23;99795.25;4905395;29;20044;-92
2022/03/03 14:33:07;;;;;;;66.47;39.40;;;;;;;4.01;83.87;99787.44;4892339;29;20051;-92
2022/03/03 14:35:52;;;;;;;72.75;41.10;;;;;;;4.06;83.78;99806.44;4892756;29;20048;-92
2022/03/03 14:38:37;;;;;;;75.82;42.38;;;;;;;3.64;84.40;99771.84;4892718;29;20044;-94
2022/03/03 14:41:22;;;;;;;81.97;41.47;;;;;;;3.50;86.05;99795.09;4905407;29;20045;-92
2022/03/03 14:44:07;;;;;;;69.22;37.53;;;;;;;3.39;87.53;99798.53;4905743;29;20319;-92
2022/03/03 14:46:51;;;;;;;76.97;42.50;;;;;;;3.31;87.63;99789.84;4919290;29;20447;-91
2022/03/03 14:49:35;;;;;;;81.25;41.95;;;;;;;3.22;87.33;99803.63;4905764;29;20040;-91
2022/03/03 14:52:20;;;;;;;74.45;42.17;;;;;;;3.12;88.24;99812.19;4892652;29;20048;-90
2022/03/03 14:55:05;;;;;;;70.22;41.33;;;;;;;2.70;90.77;99782.66;4920900;29;20043;-92
2022/03/03 14:57:49;;;;;;;82.15;45.85;;;;;;;2.67;91.32;99782.63;4909251;29;20099;-93
2022/03/03 15:00:34;;;;;;;83.05;44.45;;;;;;;2.80;91.57;99808.56;4909255;29;20410;-91
2022/03/03 15:03:18;;;;;;;75.38;42.53;;;;;;;2.99;90.11;99803.47;4908724;29;20040;-91
2022/03/03 15:06:04;;;;;;;73.70;42.08;;;;;;;2.83;90.77;99818.06;4922924;29;20119;-91
2022/03/03 15:08:49;;;;;;;73.95;42.08;;;;;;;2.75;89.76;99802.50;4896114;29;20134;-92
2022/03/03 15:11:33;;;;;;;107.68;58.40;;;;;;;2.72;90.83;99820.56;4922457;29;20063;-92
2022/03/03 15:14:18;;;;;;;134.32;61.83;;;;;;;2.72;90.31;99804.19;4908499;29;20099;-91
2022/03/03 15:17:03;;;;;;;191.80;76.20;;;;;;;2.31;90.70;99777.19;4908324;29;20058;-91
2022/03/03 15:19:48;;;;;;;120.93;53.05;;;;;;;2.43;90.06;99806.56;4895689;29;20351;-90
2022/03/03 15:22:33;;;;;;;86.25;44.92;;;;;;;2.10;92.60;99820.94;4922360;29;20044;-91
2022/03/03 15:25:18;;;;;;;133.20;60.78;;;;;;;2.23;92.20;99819.34;4895605;29;20107;-88
2022/03/03 15:28:02;;;;;;;146.55;64.93;;;;;;;2.11;92.35;99801.97;4908700;29;20040;-93
2022/03/03 15:30:47;;;;;;;88.05;45.35;;;;;;;1.93;94.18;99799.25;4922085;29;20111;-91
2022/03/03 15:36:51;;;;;;;81.18;43.15;;;;;;;1.99;93.40;99819.97;4922391;29;20040;-80
2022/03/03 15:39:35;;;;;;;77.60;41.83;;;;;;;1.98;92.56;99834.63;4922002;29;20335;-80
2022/03/03 15:42:20;;;;;;;85.55;42.50;;;;;;;1.87;93.46;99841.38;4908582;29;20044;-79
2022/03/03 15:45:04;;;;;;;75.78;39.67;;;;;;;1.63;94.35;99842.00;4922548;29;20040;-79
2022/03/03 15:47:49;;;;;;;84.88;40.80;;;;;;;1.63;94.86;99839.41;4922033;29;20044;-79
2022/03/03 15:50:33;;;;;;;75.20;39.72;;;;;;;1.66;94.21;99839.44;4922287;29;20044;-79
2022/03/03 15:53:18;;;;;;;71.03;38.13;;;;;;;1.41;96.94;99843.44;4922291;29;20071;-79
2022/03/03 15:56:02;;;;;;;69.07;37.63;;;;;;;1.35;96.88;99838.19;4921792;29;20079;-79
2022/03/03 15:58:46;;;;;;;69.90;35.70;;;;;;;1.36;97.09;99840.78;4922002;29;20048;-79
2022/03/03 16:01:31;;;;;;;76.15;39.20;;;;;;;1.26;97.40;99845.81;4921817;29;20040;-79
2022/03/03 16:04:18;;;;;;;69.50;36.90;;;;;;;1.22;98.21;99847.50;4921602;29;20052;-79
2022/03/03 16:07:03;;;;;;;74.18;39.55;;;;;;;1.02;100.00;99854.09;4920708;29;20040;-79
2022/03/03 16:09:48;;;;;;;76.30;41.08;;;;;;;0.86;99.71;99865.91;4907724;29;20054;-78
2022/03/03 16:12:32;;;;;;;95.70;44.85;;;;;;;0.72;99.42;99872.56;4907226;29;20081;-78
2022/03/03 16:15:16;;;;;;;73.32;42.95;;;;;;;0.69;99.04;99876.81;4908398;29;20076;-78
2022/03/03 16:18:01;;;;;;;149.93;70.65;;;;;;;0.49;100.00;99874.75;4908112;29;20147;-79
2022/03/03 16:20:45;;;;;;;83.65;39.03;;;;;;;0.42;99.49;99879.84;4907940;29;20048;-79
2022/03/03 16:23:30;;;;;;;170.55;70.97;;;;;;;0.30;100.00;99879.63;4908275;29;20118;-79
2022/03/03 16:26:15;;;;;;;127.18;56.15;;;;;;;0.29;100.00;99884.72;4921288;29;20048;-79
2022/03/03 16:28:59;;;;;;;133.40;62.35;;;;;;;0.16;100.00;99869.06;4907499;29;20055;-79
2022/03/03 16:32:07;;;;;;;106.25;50.58;;;;;;;0.17;100.00;99885.41;4908238;29;20059;-78
2022/03/03 16:34:52;;;;;;;76.75;45.33;;;;;;;0.08;100.00;99867.19;4922029;29;20087;-78
2022/03/03 16:37:38;;;;;;;74.47;38.75;;;;;;;0.13;100.00;99899.94;4894408;29;20367;-78
2022/03/03 16:40:22;;;;;;;73.85;39.72;;;;;;;-0.25;100.00;99892.31;4908140;29;20052;-77
2022/03/03 16:43:09;;;;;;;72.70;39.45;;;;;;;-0.25;100.00;99901.75;4907660;29;20048;-78
2022/03/03 16:45:53;;;;;;;77.47;38.72;;;;;;;-0.10;100.00;99912.38;4908502;29;20051;-77
2022/03/03 16:48:38;;;;;;;76.40;38.50;;;;;;;-0.24;100.00;99911.22;4911163;29;20047;-78
2022/03/03 16:51:23;;;;;;;71.85;39.75;;;;;;;-0.38;100.00;99898.06;4923818;29;20072;-78
2022/03/03 16:54:09;;;;;;;114.53;48.20;;;;;;;-0.38;100.00;99913.50;4890800;29;20088;-78
2022/03/03 16:56:53;;;;;;;69.40;36.65;;;;;;;-0.49;100.00;99915.88;4906526;29;20044;-78
2022/03/03 16:59:38;;;;;;;192.75;83.50;;;;;;;-0.56;100.00;99919.13;4906649;29;20405;-78
2022/03/03 17:02:25;;;;;;;131.90;65.85;;;;;;;-0.48;100.00;99917.59;4901996;29;20053;-78